Time;durP1;ratioP1;P1;durP2;ratioP2;P2;SDS_P1;SDS_P2;PMS_P1;PMS_P2;Temp;Humidity;BMP_temperature;BMP_pressure;BME280_temperature;BME280_humidity;BME280_pressure;Samples;Min_cycle;Max_cycle;Signal;HPM_P1;HPM_P2
2022/01/01 00:01:45;;;;;;;16.77;15.10;;;15.80;78.40;;;;;;5088111;28;20028;-92
2022/01/01 00:04:47;;;;;;;;;;;;;;;;;;;;;
2022/01/01 00:07:15;;;;;;;16.77;14.48;;;15.80;78.50;;;;;;5090097;28;20491;-89
2022/01/01 00:09:45;;;;;;;16.92;15.05;;;15.80;78.30;;;;;;5089688;28;20028;-92
2022/01/01 00:12:16;;;;;;;18.55;15.00;;;15.80;78.30;;;;;;5052364;28;20028;-92
2022/01/01 00:14:47;;;;;;;16.02;13.82;;;15.70;78.30;;;;;;5083603;28;20067;-91
2022/01/01 00:17:17;;;;;;;16.55;14.63;;;15.70;78.30;;;;;;5071549;28;20037;-90
2022/01/01 00:19:46;;;;;;;16.50;14.77;;;15.80;78.30;;;;;;5070745;28;20447;-92
2022/01/01 00:22:27;;;;;;;17.90;14.90;;;15.80;78.30;;;;;;5061747;28;20044;-91
2022/01/01 00:24:56;;;;;;;16.15;14.05;;;15.80;78.40;;;;;;5070646;28;20064;-91
2022/01/01 00:27:47;;;;;;;16.55;14.07;;;15.80;78.30;;;;;;5082150;28;20032;-90
2022/01/01 00:30:18;;;;;;;15.52;13.88;;;15.80;78.40;;;;;;5091280;28;20067;-89
2022/01/01 00:32:54;;;;;;;18.08;13.93;;;15.80;78.20;;;;;;5088746;28;20032;-90
2022/01/01 00:35:27;;;;;;;16.92;13.07;;;15.80;78.40;;;;;;5090500;28;20039;-88
2022/01/01 00:37:56;;;;;;;15.82;13.55;;;15.80;78.20;;;;;;5082366;28;20435;-88
2022/01/01 00:40:33;;;;;;;15.93;13.55;;;15.80;78.30;;;;;;5078923;28;20044;-90
2022/01/01 00:43:03;;;;;;;15.55;13.80;;;15.70;78.20;;;;;;5080445;28;20498;-91
2022/01/01 00:45:29;;;;;;;16.58;13.95;;;15.70;78.20;;;;;;5084470;28;20097;-91
2022/01/01 00:47:55;;;;;;;17.13;13.95;;;15.80;78.30;;;;;;5077853;28;20029;-91
2022/01/01 00:50:24;;;;;;;17.35;14.45;;;15.80;78.30;;;;;;5071514;28;20085;-91
2022/01/01 00:52:52;;;;;;;16.55;13.82;;;15.70;78.20;;;;;;5087526;28;20023;-90
2022/01/01 00:55:19;;;;;;;16.80;13.65;;;15.80;78.30;;;;;;5091200;28;20136;-91
2022/01/01 00:57:57;;;;;;;17.95;13.85;;;15.70;78.20;;;;;;5088145;28;20076;-91
2022/01/01 01:00:28;;;;;;;14.38;12.82;;;15.70;78.20;;;;;;5070797;28;20102;-91
2022/01/01 01:02:56;;;;;;;16.05;12.57;;;15.80;78.30;;;;;;5081456;28;20048;-89
2022/01/01 01:05:31;;;;;;;14.60;12.77;;;15.80;78.30;;;;;;5083437;28;20041;-91
2022/01/01 01:08:03;;;;;;;14.77;13.18;;;15.80;78.20;;;;;;5079361;28;20028;-90
2022/01/01 01:10:37;;;;;;;15.27;13.68;;;15.80;78.30;;;;;;5079363;28;20462;-90
2022/01/01 01:13:10;;;;;;;15.55;13.57;;;15.70;78.30;;;;;;5080206;28;20020;-89
2022/01/01 01:15:44;;;;;;;15.10;12.70;;;15.70;78.30;;;;;;5071597;28;20052;-92
2022/01/01 01:18:13;;;;;;;17.70;12.98;;;15.70;78.20;;;;;;5078345;28;20047;-89
2022/01/01 01:20:40;;;;;;;15.15;13.55;;;15.70;78.20;;;;;;5077489;28;20028;-89
2022/01/01 01:23:07;;;;;;;15.35;13.75;;;15.70;78.30;;;;;;5094163;28;20076;-90
2022/01/01 01:25:42;;;;;;;14.68;13.13;;;15.70;78.30;;;;;;5094759;28;20106;-90
2022/01/01 01:28:11;;;;;;;17.50;13.52;;;15.70;78.30;;;;;;5086146;28;20090;-87
2022/01/01 01:30:47;;;;;;;16.85;13.20;;;15.70;78.30;;;;;;5065156;28;20075;-90
2022/01/01 01:33:13;;;;;;;14.63;12.70;;;15.70;78.30;;;;;;5078241;28;20032;-90
2022/01/01 01:35:39;;;;;;;15.77;13.50;;;15.70;78.20;;;;;;5108308;28;20111;-91
2022/01/01 01:38:10;;;;;;;16.08;13.73;;;15.70;78.30;;;;;;5088134;28;20071;-89
2022/01/01 01:40:48;;;;;;;16.20;14.00;;;15.70;78.30;;;;;;5109593;27;20024;-88
2022/01/01 01:43:27;;;;;;;17.02;13.52;;;15.70;78.30;;;;;;5078007;28;20027;-87
2022/01/01 01:46:02;;;;;;;17.42;13.63;;;15.70;78.30;;;;;;5080798;28;20457;-90
2022/01/01 01:48:28;;;;;;;18.05;14.55;;;15.70;78.20;;;;;;5075551;28;20040;-90
2022/01/01 01:50:58;;;;;;;17.08;13.48;;;15.70;78.30;;;;;;5063406;28;20045;-92
2022/01/01 01:53:30;;;;;;;16.50;13.93;;;15.70;78.40;;;;;;5108975;28;20016;-89
2022/01/01 01:55:58;;;;;;;16.02;13.43;;;15.70;78.30;;;;;;5099099;28;20055;-91
2022/01/01 01:58:43;;;;;;;15.60;13.82;;;15.70;78.30;;;;;;5096387;28;20055;-91
2022/01/01 02:03:47;;;;;;;16.98;14.35;;;15.70;78.30;;;;;;5080710;28;20484;-91
2022/01/01 02:06:17;;;;;;;15.10;13.50;;;15.70;78.30;;;;;;5079498;28;20085;-91
2022/01/01 02:08:49;;;;;;;15.38;12.70;;;15.70;79.00;;;;;;5078664;28;20032;-91
2022/01/01 02:11:18;;;;;;;16.65;13.80;;;15.70;78.30;;;;;;5095223;28;20024;-91
2022/01/01 02:14:03;;;;;;;17.25;14.35;;;15.70;78.40;;;;;;5066746;28;20028;-91
2022/01/01 02:19:55;;;;;;;13.88;12.40;;;15.60;78.30;;;;;;5084494;28;20064;-92
2022/01/01 02:22:37;;;;;;;;;;;;;;;;;;;;;
2022/01/01 02:25:07;;;;;;;16.85;13.95;;;15.60;78.30;;;;;;5088678;28;20080;-91
2022/01/01 02:27:44;;;;;;;15.93;13.45;;;15.60;78.30;;;;;;5106427;28;20024;-91
2022/01/01 02:30:14;;;;;;;16.85;14.10;;;15.60;78.40;;;;;;5105406;28;20032;-91
2022/01/01 02:32:48;;;;;;;15.93;13.48;;;15.70;78.40;;;;;;5102204;28;20055;-91
2022/01/01 02:35:18;;;;;;;16.92;13.88;;;15.70;78.40;;;;;;5110339;28;20020;-91
2022/01/01 02:37:47;;;;;;;15.95;13.90;;;15.60;78.40;;;;;;5094289;28;20032;-91
2022/01/01 02:40:43;;;;;;;;;;;;;;;;;;;;;
2022/01/01 02:43:14;;;;;;;16.20;13.38;;;15.70;78.40;;;;;;5091165;28;20046;-92
2022/01/01 02:45:45;;;;;;;16.08;13.65;;;15.70;78.40;;;;;;5066635;28;20034;-91
2022/01/01 02:48:14;;;;;;;16.27;13.85;;;15.60;78.30;;;;;;5081866;28;20024;-91
2022/01/01 02:50:40;;;;;;;16.35;13.88;;;15.60;78.40;;;;;;5085098;28;20028;-91
2022/01/01 02:53:13;;;;;;;16.63;13.73;;;15.60;78.40;;;;;;5091016;28;20044;-91
2022/01/01 02:55:44;;;;;;;15.32;13.65;;;15.60;78.40;;;;;;5094517;28;20357;-91
2022/01/01 02:58:17;;;;;;;15.10;13.50;;;15.60;78.40;;;;;;5094149;28;20377;-91
2022/01/01 03:00:46;;;;;;;16.63;13.80;;;15.60;78.40;;;;;;5074151;28;20056;-91
2022/01/01 03:03:19;;;;;;;16.35;13.52;;;15.60;78.40;;;;;;5087540;28;20020;-90
2022/01/01 03:05:45;;;;;;;16.55;13.60;;;15.60;78.40;;;;;;5110114;27;20031;-91
2022/01/01 03:08:16;;;;;;;16.40;13.68;;;15.60;78.40;;;;;;5077036;28;20036;-90
2022/01/01 03:10:51;;;;;;;15.70;13.95;;;15.60;78.40;;;;;;5094144;28;20032;-91
2022/01/01 03:13:25;;;;;;;16.30;13.60;;;15.60;78.40;;;;;;5080730;28;20032;-91
2022/01/01 03:15:51;;;;;;;16.02;13.38;;;15.60;78.40;;;;;;5076819;28;20039;-91
2022/01/01 03:18:19;;;;;;;16.60;14.43;;;15.60;78.40;;;;;;5093854;28;20032;-91
2022/01/01 03:20:49;;;;;;;15.27;12.73;;;15.60;78.40;;;;;;5077098;28;20036;-92
2022/01/01 03:23:15;;;;;;;15.95;14.23;;;15.60;78.40;;;;;;5110893;28;20048;-90
2022/01/01 03:25:47;;;;;;;16.98;14.15;;;15.60;78.40;;;;;;5090056;28;20059;-91
2022/01/01 03:28:13;;;;;;;15.40;13.43;;;15.60;78.40;;;;;;5092816;28;20060;-91
2022/01/01 03:30:39;;;;;;;15.63;13.80;;;15.60;78.40;;;;;;5097553;28;20055;-91
2022/01/01 03:33:07;;;;;;;15.52;13.55;;;15.60;78.40;;;;;;5093251;28;20115;-91
2022/01/01 03:36:00;;;;;;;16.27;13.48;;;15.60;78.40;;;;;;5076323;28;20115;-91
2022/01/01 03:38:26;;;;;;;15.30;13.10;;;15.60;78.50;;;;;;5093009;28;20032;-90
2022/01/01 03:40:55;;;;;;;15.73;13.35;;;15.60;78.40;;;;;;5086249;28;20408;-91
2022/01/01 03:43:24;;;;;;;15.13;13.20;;;15.50;78.30;;;;;;5080720;28;20033;-91
2022/01/01 03:45:50;;;;;;;15.43;13.85;;;15.60;78.40;;;;;;5039942;28;20479;-91
2022/01/01 03:48:16;;;;;;;15.02;13.43;;;15.60;78.40;;;;;;5084291;28;20058;-91
2022/01/01 03:50:49;;;;;;;15.70;12.95;;;15.60;78.40;;;;;;5076494;28;20020;-92
2022/01/01 03:53:18;;;;;;;14.48;12.73;;;15.60;78.40;;;;;;5083294;28;20031;-92
2022/01/01 03:55:47;;;;;;;14.50;12.02;;;15.50;78.30;;;;;;5089680;28;20024;-91
2022/01/01 03:58:13;;;;;;;14.05;11.98;;;15.60;78.40;;;;;;5091932;28;20083;-91
2022/01/01 04:00:40;;;;;;;14.15;12.35;;;15.50;78.40;;;;;;5092506;28;20449;-91
2022/01/01 04:03:12;;;;;;;14.85;12.77;;;15.60;78.40;;;;;;5100973;28;20034;-91
2022/01/01 04:05:42;;;;;;;14.85;12.18;;;15.50;78.40;;;;;;5105825;28;20062;-91
2022/01/01 04:08:16;;;;;;;13.65;12.07;;;15.60;78.40;;;;;;5091855;28;20028;-91
2022/01/01 04:10:51;;;;;;;15.20;12.07;;;15.60;78.50;;;;;;5075588;28;20080;-91
2022/01/01 04:13:17;;;;;;;14.63;13.00;;;15.60;78.40;;;;;;5093327;28;20054;-91
2022/01/01 04:15:49;;;;;;;15.38;12.63;;;15.60;78.40;;;;;;5075548;28;20024;-91
2022/01/01 04:18:26;;;;;;;13.30;11.45;;;15.50;78.40;;;;;;5076499;28;20036;-91
2022/01/01 04:20:52;;;;;;;13.65;11.18;;;15.50;78.40;;;;;;5092346;28;20535;-91
2022/01/01 04:23:29;;;;;;;;;;;;;;;;;;;;;
2022/01/01 04:25:58;;;;;;;13.57;11.20;;;15.50;78.40;;;;;;5083564;28;20029;-90
2022/01/01 04:28:27;;;;;;;14.15;11.68;;;15.50;78.30;;;;;;5090074;28;20031;-91
2022/01/01 04:31:02;;;;;;;13.02;10.60;;;15.50;78.40;;;;;;5092690;28;20031;-90
2022/01/01 04:33:33;;;;;;;12.68;10.48;;;15.50;78.40;;;;;;5086809;28;20067;-91
2022/01/01 04:35:59;;;;;;;12.90;10.98;;;15.50;78.40;;;;;;5072858;28;20032;-91
2022/01/01 04:41:11;;;;;;;12.07;9.98;;;15.50;78.40;;;;;;5105993;28;20028;-91
2022/01/01 04:43:38;;;;;;;11.65;10.45;;;15.50;78.40;;;;;;5075653;28;20024;-91
2022/01/01 04:46:05;;;;;;;13.80;11.02;;;15.50;78.40;;;;;;5092219;28;20028;-91
2022/01/01 04:48:31;;;;;;;11.65;10.05;;;15.50;78.40;;;;;;5090440;28;20119;-91
2022/01/01 04:51:00;;;;;;;14.15;10.40;;;15.50;78.40;;;;;;5081739;28;20024;-90
2022/01/01 04:53:43;;;;;;;11.63;10.02;;;15.50;78.40;;;;;;5098697;28;20056;-91
2022/01/01 04:56:17;;;;;;;12.30;10.25;;;15.50;78.40;;;;;;5088825;28;20062;-91
2022/01/01 04:58:48;;;;;;;12.65;9.45;;;15.50;78.40;;;;;;5095816;28;20028;-91
2022/01/01 05:01:18;;;;;;;13.07;10.63;;;15.50;78.40;;;;;;5084377;28;20048;-91
2022/01/01 05:03:48;;;;;;;11.85;9.27;;;15.50;78.40;;;;;;5096096;28;20035;-90
2022/01/01 05:06:16;;;;;;;10.75;9.57;;;15.50;78.50;;;;;;5096305;28;20019;-91
2022/01/01 05:08:45;;;;;;;12.52;9.48;;;15.50;78.40;;;;;;5071287;28;20071;-91
2022/01/01 05:11:15;;;;;;;12.77;9.65;;;15.50;78.50;;;;;;5076044;28;20089;-91
2022/01/01 05:13:44;;;;;;;10.02;8.60;;;15.50;78.40;;;;;;5079747;28;20032;-91
2022/01/01 05:16:25;;;;;;;;;;;;;;;;;;;;;
2022/01/01 05:18:57;;;;;;;11.32;9.32;;;15.50;78.50;;;;;;5092758;28;20036;-92
2022/01/01 05:21:31;;;;;;;10.88;8.65;;;15.50;78.40;;;;;;5086854;28;20056;-92
2022/01/01 05:24:08;;;;;;;10.23;8.18;;;15.50;78.40;;;;;;5088807;28;20366;-91
2022/01/01 05:26:47;;;;;;;9.98;8.38;;;15.50;78.40;;;;;;5096019;28;20034;-91
2022/01/01 05:29:19;;;;;;;10.65;8.63;;;15.50;78.40;;;;;;5096066;28;20107;-91
2022/01/01 05:31:50;;;;;;;9.65;8.45;;;15.50;78.50;;;;;;5097463;28;20023;-91
2022/01/01 05:34:18;;;;;;;10.77;8.07;;;15.50;78.40;;;;;;5097080;28;20032;-91
2022/01/01 05:36:46;;;;;;;9.68;8.18;;;15.50;78.50;;;;;;5077448;28;20032;-91
2022/01/01 05:39:15;;;;;;;10.02;8.23;;;15.50;78.50;;;;;;5097401;28;20581;-91
2022/01/01 05:41:52;;;;;;;9.68;8.27;;;15.50;78.50;;;;;;5090121;28;20039;-91
2022/01/01 05:44:20;;;;;;;9.63;7.28;;;15.50;79.10;;;;;;5104449;28;20024;-91
2022/01/01 05:46:49;;;;;;;9.73;7.65;;;15.50;78.50;;;;;;5113089;28;20015;-90
2022/01/01 05:49:18;;;;;;;10.45;7.75;;;15.50;78.50;;;;;;5118254;28;20035;-91
2022/01/01 05:52:01;;;;;;;9.95;7.53;;;15.50;78.50;;;;;;5101002;28;20005;-90
2022/01/01 05:54:27;;;;;;;8.60;6.65;;;15.50;78.40;;;;;;5083241;28;20028;-90
2022/01/01 05:56:56;;;;;;;9.63;7.03;;;15.50;78.40;;;;;;5065414;28;20115;-91
2022/01/01 05:59:24;;;;;;;9.52;6.85;;;15.50;78.50;;;;;;5088293;28;20048;-91
2022/01/01 06:01:54;;;;;;;8.70;7.03;;;15.50;78.50;;;;;;5088819;28;20115;-91
2022/01/01 06:04:20;;;;;;;8.98;6.60;;;15.50;78.50;;;;;;5088076;28;20089;-91
2022/01/01 06:06:49;;;;;;;8.70;7.30;;;15.50;78.50;;;;;;5095030;28;20732;-89
2022/01/01 06:09:30;;;;;;;8.60;6.82;;;15.50;78.50;;;;;;5061481;28;20064;-91
2022/01/01 06:12:01;;;;;;;8.90;6.38;;;15.40;78.50;;;;;;5078836;28;20464;-91
2022/01/01 06:14:34;;;;;;;9.18;6.88;;;15.50;78.50;;;;;;5094784;28;20045;-91
2022/01/01 06:17:10;;;;;;;8.35;6.20;;;15.40;78.40;;;;;;5111615;28;20096;-91
2022/01/01 06:19:38;;;;;;;8.82;6.18;;;15.50;78.50;;;;;;5074790;28;20029;-92
2022/01/01 06:22:07;;;;;;;7.28;6.10;;;15.50;78.50;;;;;;5060245;28;20052;-92
2022/01/01 06:24:35;;;;;;;8.18;6.03;;;15.50;78.50;;;;;;5087937;28;20476;-92
2022/01/01 06:27:06;;;;;;;8.27;6.30;;;15.40;78.50;;;;;;5094250;28;20012;-91
2022/01/01 06:29:37;;;;;;;8.15;6.75;;;15.40;78.40;;;;;;5091489;28;20028;-91
2022/01/01 06:32:03;;;;;;;7.45;6.18;;;15.40;78.50;;;;;;5088166;28;20021;-91
2022/01/01 06:34:38;;;;;;;9.25;6.28;;;15.50;78.50;;;;;;5061127;28;20063;-91
2022/01/01 06:37:04;;;;;;;7.93;5.90;;;15.40;78.50;;;;;;5089883;28;20107;-91
2022/01/01 06:39:35;;;;;;;7.13;5.75;;;15.50;78.50;;;;;;5061141;28;20105;-91
2022/01/01 06:42:04;;;;;;;7.78;5.18;;;15.40;78.40;;;;;;5085536;28;20027;-91
2022/01/01 06:44:32;;;;;;;7.70;5.63;;;15.40;78.50;;;;;;5069453;28;20473;-91
2022/01/01 06:46:58;;;;;;;7.85;6.03;;;15.40;78.50;;;;;;5074309;28;20469;-91
2022/01/01 06:49:34;;;;;;;6.90;5.50;;;15.40;78.50;;;;;;5086371;28;20040;-91
2022/01/01 06:52:03;;;;;;;7.75;5.45;;;15.40;78.50;;;;;;5087291;28;20062;-91
2022/01/01 06:54:32;;;;;;;8.55;5.63;;;15.40;78.50;;;;;;5074186;28;20040;-91
2022/01/01 06:56:58;;;;;;;7.97;5.45;;;15.40;78.50;;;;;;5090792;28;20051;-91
2022/01/01 06:59:29;;;;;;;7.03;5.00;;;15.40;78.50;;;;;;5101873;28;20065;-90
2022/01/01 07:01:58;;;;;;;6.63;5.30;;;15.40;78.50;;;;;;5081312;28;20040;-91
2022/01/01 07:04:27;;;;;;;7.13;5.00;;;15.40;78.50;;;;;;5096429;28;20023;-91
2022/01/01 07:06:55;;;;;;;6.63;4.90;;;15.40;78.50;;;;;;5095811;28;20091;-91
2022/01/01 07:09:29;;;;;;;7.13;5.50;;;15.40;78.50;;;;;;5079123;28;20032;-91
2022/01/01 07:11:59;;;;;;;6.80;5.10;;;15.40;78.40;;;;;;5086824;28;20025;-91
2022/01/01 07:14:33;;;;;;;6.88;4.82;;;15.40;78.40;;;;;;5111974;28;20036;-91
2022/01/01 07:17:12;;;;;;;6.75;4.88;;;15.40;78.40;;;;;;5069437;28;20060;-91
2022/01/01 07:19:41;;;;;;;6.45;5.05;;;15.40;78.40;;;;;;5076450;28;20066;-91
2022/01/01 07:22:18;;;;;;;6.93;4.85;;;15.40;78.40;;;;;;5076709;28;20051;-91
2022/01/01 07:24:54;;;;;;;6.50;5.00;;;15.30;78.40;;;;;;5093726;28;20096;-90
2022/01/01 07:27:23;;;;;;;6.05;4.78;;;15.40;78.40;;;;;;5103485;28;20511;-91
2022/01/01 07:29:52;;;;;;;7.30;4.50;;;15.40;78.40;;;;;;5087666;28;20483;-91
2022/01/01 07:32:18;;;;;;;7.00;4.50;;;15.30;78.40;;;;;;5095404;28;20028;-92
2022/01/01 07:34:49;;;;;;;6.30;4.70;;;15.30;78.50;;;;;;5076544;28;20031;-91
2022/01/01 07:37:17;;;;;;;7.13;4.43;;;15.30;78.40;;;;;;5095783;28;20035;-92
2022/01/01 07:39:50;;;;;;;6.47;4.35;;;15.30;78.40;;;;;;5074691;28;20417;-89
2022/01/01 07:42:30;;;;;;;6.18;4.50;;;15.30;78.30;;;;;;5093642;28;20388;-91
2022/01/01 07:45:06;;;;;;;;;;;;;;;;;;;;;
2022/01/01 07:47:36;;;;;;;5.65;4.40;;;15.30;78.30;;;;;;5093751;28;20032;-92
2022/01/01 07:50:09;;;;;;;5.47;4.07;;;15.30;78.30;;;;;;5093084;28;20028;-92
2022/01/01 07:52:43;;;;;;;5.72;4.28;;;15.20;78.30;;;;;;5086079;28;20464;-92
2022/01/01 07:55:12;;;;;;;6.78;4.45;;;15.30;78.30;;;;;;5073874;28;20059;-91
2022/01/01 07:57:46;;;;;;;6.83;4.23;;;15.20;78.20;;;;;;5092816;28;20043;-91
2022/01/01 08:00:17;;;;;;;6.28;4.40;;;15.20;78.20;;;;;;5092563;28;20129;-92
2022/01/01 08:02:49;;;;;;;5.53;4.07;;;15.20;78.20;;;;;;5093344;28;20038;-92
2022/01/01 08:05:26;;;;;;;4.63;3.53;;;15.20;78.40;;;;;;5079467;28;20024;-92
2022/01/01 08:08:05;;;;;;;;;;;;;;;;;;;;;
2022/01/01 08:10:39;;;;;;;5.45;3.88;;;15.20;78.20;;;;;;5091716;28;20028;-92
2022/01/01 08:13:08;;;;;;;5.22;3.75;;;15.20;78.20;;;;;;5092518;28;20044;-91
2022/01/01 08:15:49;;;;;;;;;;;;;;;;;;;;;
2022/01/01 08:18:29;;;;;;;5.47;3.92;;;15.20;78.30;;;;;;5064197;28;20040;-92
2022/01/01 08:20:58;;;;;;;6.03;3.58;;;15.20;78.20;;;;;;5075714;28;20027;-91
2022/01/01 08:23:27;;;;;;;5.20;3.55;;;15.20;78.20;;;;;;5078689;28;20473;-92
2022/01/01 08:26:13;;;;;;;;;;;;;;;;;;;;;
2022/01/01 08:29:04;;;;;;;5.50;3.40;;;15.20;78.30;;;;;;5095139;28;20032;-92
2022/01/01 08:31:42;;;;;;;5.47;3.80;;;15.10;78.30;;;;;;5077523;28;20127;-91
2022/01/01 08:34:23;;;;;;;;;;;;;;;;;;;;;
2022/01/01 08:36:50;;;;;;;5.00;3.35;;;15.10;78.20;;;;;;5092818;28;20043;-93
2022/01/01 08:39:21;;;;;;;6.28;3.80;;;15.10;78.20;;;;;;5093451;28;20064;-91
2022/01/01 08:41:52;;;;;;;4.53;3.30;;;15.10;78.20;;;;;;5084037;28;20553;-94
2022/01/01 08:44:29;;;;;;;4.47;3.17;;;15.10;78.20;;;;;;5072003;28;20108;-92
2022/01/01 08:46:57;;;;;;;4.95;3.25;;;15.10;78.30;;;;;;5088772;28;20123;-92
2022/01/01 08:49:26;;;;;;;5.28;3.55;;;15.10;78.20;;;;;;5091952;28;20056;-92
2022/01/01 08:51:57;;;;;;;5.07;3.20;;;15.10;78.30;;;;;;5076515;28;20024;-93
2022/01/01 08:54:34;;;;;;;5.28;3.70;;;15.10;78.30;;;;;;5093407;28;20465;-92
2022/01/01 08:57:05;;;;;;;4.72;3.30;;;15.10;78.20;;;;;;5092967;28;20055;-92
2022/01/01 08:59:36;;;;;;;4.25;2.90;;;15.10;78.20;;;;;;5092699;28;20039;-92
2022/01/01 09:02:24;;;;;;;4.85;3.42;;;15.10;78.30;;;;;;5092390;28;20035;-91
2022/01/01 09:05:02;;;;;;;4.57;3.17;;;15.10;78.30;;;;;;5108168;28;20025;-91
2022/01/01 09:07:40;;;;;;;4.53;3.17;;;15.10;78.20;;;;;;5092242;28;20039;-92
2022/01/01 09:10:07;;;;;;;4.70;2.88;;;15.10;78.20;;;;;;5075353;28;20028;-91
2022/01/01 09:12:47;;;;;;;4.72;3.15;;;15.10;78.50;;;;;;5082064;28;20023;-92
2022/01/01 09:15:21;;;;;;;5.20;3.15;;;15.10;78.30;;;;;;5086499;28;20122;-92
2022/01/01 09:17:49;;;;;;;5.32;3.20;;;15.10;78.30;;;;;;5085627;28;20548;-92
2022/01/01 09:20:31;;;;;;;;;;;;;;;;;;;;;
2022/01/01 09:23:08;;;;;;;4.95;2.90;;;15.10;78.40;;;;;;5095745;28;20063;-87
2022/01/01 09:25:36;;;;;;;4.20;2.95;;;15.10;78.40;;;;;;5093134;28;20818;-88
2022/01/01 09:28:03;;;;;;;5.30;3.33;;;15.10;78.30;;;;;;5076216;28;20028;-91
2022/01/01 09:30:37;;;;;;;4.68;2.92;;;15.10;78.30;;;;;;5092672;28;20032;-90
2022/01/01 09:33:10;;;;;;;4.28;2.65;;;15.10;78.30;;;;;;5078413;28;20383;-91
2022/01/01 09:35:38;;;;;;;5.40;3.35;;;15.10;78.30;;;;;;5103141;28;20040;-91
2022/01/01 09:38:16;;;;;;;4.72;3.17;;;15.10;78.30;;;;;;5115832;28;20126;-92
2022/01/01 09:40:42;;;;;;;6.65;3.22;;;15.10;78.40;;;;;;5096651;28;20027;-92
2022/01/01 09:43:13;;;;;;;4.88;3.13;;;15.10;78.30;;;;;;5062537;28;20047;-91
2022/01/01 09:45:43;;;;;;;4.82;2.88;;;15.10;78.40;;;;;;5096107;28;20035;-88
2022/01/01 09:48:18;;;;;;;5.55;2.90;;;15.10;78.40;;;;;;5079946;28;20036;-90
2022/01/01 09:50:49;;;;;;;3.53;2.53;;;15.10;78.40;;;;;;5101833;28;20031;-87
2022/01/01 09:53:26;;;;;;;4.38;2.90;;;15.10;78.40;;;;;;5089200;28;20103;-89
2022/01/01 09:55:59;;;;;;;4.07;2.83;;;15.10;78.50;;;;;;5083146;28;20031;-89
2022/01/01 09:58:29;;;;;;;4.82;2.90;;;15.20;78.50;;;;;;5095936;28;20114;-89
2022/01/01 10:00:59;;;;;;;4.82;2.70;;;15.20;78.50;;;;;;5095241;28;20395;-91
2022/01/01 10:03:43;;;;;;;4.50;2.78;;;15.20;78.50;;;;;;5095716;28;20020;-89
2022/01/01 10:06:18;;;;;;;5.05;3.00;;;15.20;78.50;;;;;;5094093;28;20023;-90
2022/01/01 10:09:02;;;;;;;4.28;2.88;;;15.20;78.50;;;;;;5085289;28;20031;-91
2022/01/01 10:11:36;;;;;;;3.38;2.45;;;15.20;78.60;;;;;;5093607;28;20121;-91
2022/01/01 10:14:16;;;;;;;3.92;2.63;;;15.20;78.40;;;;;;5096109;28;20024;-88
2022/01/01 10:16:58;;;;;;;4.32;2.90;;;15.20;78.50;;;;;;5082141;28;20028;-89
2022/01/01 10:19:32;;;;;;;4.53;3.10;;;15.20;78.40;;;;;;5111671;28;20384;-89
2022/01/01 10:22:06;;;;;;;4.00;2.65;;;15.20;78.50;;;;;;5091138;28;20034;-89
2022/01/01 10:30:06;;;;;;;5.32;2.65;;;15.20;78.50;;;;;;5090643;28;20032;-90
2022/01/01 10:32:32;;;;;;;5.20;2.65;;;15.30;78.50;;;;;;5064060;28;20024;-88
2022/01/01 10:34:59;;;;;;;4.97;2.60;;;15.30;78.50;;;;;;5094485;28;20081;-90
2022/01/01 10:37:31;;;;;;;4.03;2.35;;;15.30;78.50;;;;;;5076475;28;20047;-89
2022/01/01 10:39:59;;;;;;;4.32;2.63;;;15.30;78.60;;;;;;5113239;28;20507;-90
2022/01/01 10:42:35;;;;;;;4.40;2.50;;;15.30;78.50;;;;;;5091119;28;20027;-89
2022/01/01 10:49:29;;;;;;;3.65;2.30;;;15.30;78.70;;;;;;5085773;28;20456;-88
2022/01/01 10:51:19;;;;;;;4.00;2.45;;;15.30;78.60;;;;;;5079024;28;20042;-92
2022/01/01 10:54:12;;;;;;;4.32;2.85;;;15.30;78.60;;;;;;5074149;28;20032;-91
2022/01/01 10:57:36;;;;;;;;;;;;;;;;;;;;;
2022/01/01 11:00:23;;;;;;;3.88;2.80;;;15.40;78.70;;;;;;5079125;28;20040;-90
2022/01/01 11:03:32;;;;;;;6.40;2.92;;;15.40;78.70;;;;;;5071366;28;20039;-90
2022/01/01 11:06:12;;;;;;;4.25;2.70;;;15.40;78.80;;;;;;5093772;28;20035;-89
2022/01/01 11:08:51;;;;;;;5.00;3.00;;;15.40;78.80;;;;;;5097454;28;20042;-93
2022/01/01 11:11:35;;;;;;;4.55;2.75;;;15.40;78.70;;;;;;5097844;28;20069;-92
2022/01/01 11:14:31;;;;;;;;;;;15.50;78.80;;;;;;5083104;28;20024;-89
2022/01/01 11:17:07;;;;;;;3.58;2.53;;;15.50;78.60;;;;;;5094498;28;19908;-92
2022/01/01 11:19:45;;;;;;;3.53;2.47;;;15.50;78.50;;;;;;5105600;28;20469;-89
2022/01/01 11:22:13;;;;;;;4.53;2.95;;;15.50;78.80;;;;;;5076450;28;20111;-89
2022/01/01 11:25:06;;;;;;;4.38;2.60;;;15.50;78.70;;;;;;5110516;28;20499;-95
2022/01/01 11:27:32;;;;;;;4.53;2.80;;;15.50;78.80;;;;;;5093707;28;20503;-90
2022/01/01 11:30:10;;;;;;;3.97;2.63;;;15.50;78.70;;;;;;5092161;28;20035;-84
2022/01/01 11:32:58;;;;;;;4.55;2.90;;;15.60;78.80;;;;;;5096371;28;20381;-89
2022/01/01 11:35:54;;;;;;;4.60;2.80;;;15.60;78.80;;;;;;5072863;28;20527;-89
2022/01/01 11:38:21;;;;;;;4.70;2.85;;;15.60;78.80;;;;;;5073196;28;20040;-94
2022/01/01 11:41:06;;;;;;;5.07;3.00;;;15.60;78.60;;;;;;5077049;28;20024;-91
2022/01/01 11:43:54;;;;;;;4.20;2.80;;;15.60;78.80;;;;;;5083460;28;20123;-91
2022/01/01 11:46:30;;;;;;;4.82;3.03;;;15.60;78.70;;;;;;5062434;28;20048;-94
2022/01/01 11:49:20;;;;;;;3.83;2.45;;;15.60;78.60;;;;;;5087276;28;20036;-93
2022/01/01 11:52:10;;;;;;;4.78;2.67;;;15.60;78.60;;;;;;5076063;28;20208;-92
2022/01/01 11:54:49;;;;;;;3.40;2.58;;;15.70;78.60;;;;;;5061107;28;20039;-90
2022/01/01 11:57:53;;;;;;;3.83;2.60;;;15.70;78.60;;;;;;5080783;28;20059;-91
2022/01/01 12:00:34;;;;;;;4.15;2.65;;;15.70;78.60;;;;;;5073581;28;20073;-90
2022/01/01 12:03:15;;;;;;;4.10;2.75;;;15.70;78.60;;;;;;5074081;28;20119;-91
2022/01/01 12:07:03;;;;;;;5.45;2.92;;;15.70;78.60;;;;;;5089731;28;20036;-90
2022/01/01 12:09:22;;;;;;;3.72;2.35;;;15.70;78.70;;;;;;5080729;28;20044;-88
2022/01/01 12:11:58;;;;;;;4.82;3.17;;;15.80;78.50;;;;;;5092904;28;20024;-93
2022/01/01 12:14:28;;;;;;;4.22;2.97;;;15.80;78.60;;;;;;5092763;28;20035;-91
2022/01/01 12:16:55;;;;;;;4.07;2.55;;;15.80;78.60;;;;;;5073042;28;20028;-92
2022/01/01 12:19:37;;;;;;;4.63;2.80;;;15.80;78.50;;;;;;5079450;28;20079;-90
2022/01/01 12:22:16;;;;;;;4.30;2.53;;;15.80;78.50;;;;;;5073107;28;20102;-90
2022/01/01 12:24:43;;;;;;;4.57;2.72;;;15.80;78.50;;;;;;5073668;28;20098;-85
2022/01/01 12:27:11;;;;;;;4.97;3.10;;;15.80;78.50;;;;;;5061987;28;20032;-91
2022/01/01 12:29:37;;;;;;;4.38;2.90;;;15.90;78.50;;;;;;5092506;28;20038;-90
2022/01/01 12:32:14;;;;;;;4.18;2.60;;;15.90;78.50;;;;;;5077265;28;20063;-89
2022/01/01 12:35:13;;;;;;;3.60;2.45;;;15.90;78.50;;;;;;5076515;28;20111;-88
2022/01/01 12:37:39;;;;;;;4.40;2.90;;;15.90;78.60;;;;;;5077093;28;20105;-89
2022/01/01 12:44:01;;;;;;;3.53;2.33;;;15.90;78.50;;;;;;5091869;28;20048;-92
2022/01/01 12:46:34;;;;;;;4.28;2.75;;;15.90;78.50;;;;;;5088040;28;20058;-92
2022/01/01 12:49:17;;;;;;;4.57;2.70;;;16.00;78.40;;;;;;5092472;28;20038;-91
2022/01/01 12:51:56;;;;;;;3.35;2.38;;;16.00;78.60;;;;;;5075296;28;20480;-91
2022/01/01 12:55:08;;;;;;;4.57;3.08;;;16.00;78.40;;;;;;5091471;28;20032;-91
2022/01/01 12:57:49;;;;;;;3.97;2.60;;;16.00;78.60;;;;;;5091944;28;20034;-91
2022/01/01 13:00:41;;;;;;;;;;;;;;;;;;;;;
2022/01/01 13:03:51;;;;;;;3.88;2.58;;;16.10;78.50;;;;;;5102099;28;20032;-90
2022/01/01 13:07:29;;;;;;;3.20;2.40;;;16.10;78.40;;;;;;5089170;28;20032;-91
2022/01/01 13:10:13;;;;;;;3.13;2.08;;;16.10;78.50;;;;;;5078353;28;20032;-91
2022/01/01 13:13:24;;;;;;;;;;;;;;;;;;;;;
2022/01/01 13:16:30;;;;;;;4.10;2.60;;;16.10;78.50;;;;;;5083079;28;20060;-92
2022/01/01 13:23:17;;;;;;;3.63;2.43;;;16.10;78.40;;;;;;5050610;28;20051;-92
2022/01/01 13:25:45;;;;;;;4.43;2.45;;;16.20;78.30;;;;;;5075802;28;20023;-92
2022/01/01 13:28:49;;;;;;;3.83;2.45;;;16.20;78.30;;;;;;5096515;28;20480;-93
2022/01/01 13:31:44;;;;;;;;;;;;;;;;;;;;;
2022/01/01 13:35:04;;;;;;;3.75;2.30;;;16.20;78.40;;;;;;5096007;28;20496;-93
2022/01/01 13:38:22;;;;;;;4.45;2.63;;;16.20;78.40;;;;;;5060845;28;20037;-92
2022/01/01 13:41:26;;;;;;;4.05;2.40;;;16.20;78.40;;;;;;5088667;28;20366;-93
2022/01/01 13:44:42;;;;;;;;;;;;;;;;;;;;;
2022/01/01 13:51:25;;;;;;;;;;;;;;;;;;;;;
2022/01/01 13:57:59;;;;;;;2.83;2.10;;;16.30;78.50;;;;;;5091761;27;20408;-92
2022/01/01 14:01:19;;;;;;;3.08;2.10;;;16.30;78.40;;;;;;5071858;28;20048;-92
2022/01/01 14:04:29;;;;;;;;;;;;;;;;;;;;;
2022/01/01 14:07:51;;;;;;;2.63;2.00;;;16.30;78.30;;;;;;5090466;28;20035;-94
2022/01/01 14:11:06;;;;;;;3.22;2.20;;;16.30;78.50;;;;;;5074626;28;20028;-92
2022/01/01 14:14:25;;;;;;;;;;;;;;;;;;;;;
2022/01/01 14:17:17;;;;;;;;;;;;;;;;;;;;;
2022/01/01 14:20:20;;;;;;;4.43;2.58;;;16.30;78.30;;;;;;5086608;28;20036;-91
2022/01/01 14:23:05;;;;;;;2.92;2.13;;;16.30;78.40;;;;;;5087630;28;20056;-91